Apex, NC

8:01 AM EDT on August 04, 2015 (GMT -0400)
Surrey Meadows | | Change Station
CLOSE
Current Station
Personal Weather Station
Location: APEX, NC
Elevation: 476 ft
Nearby Weather Stations

Elev 476 ft 35.73 °N, 78.83 °W | Updated 1 minute ago

Overcast
Overcast
75.6 °F
Feels Like 76 °F
N
1.1
Wind Variable Wind from SSW

Today
High -- | Low -- °F
--% Chance of Precip.
Yesterday
High -- | Low -- °F
Precip. -- in
6:25 AM 8:16 PM
Waning Gibbous, 78% visible
Pressure 29.99 in
Visibility 9.0 miles
Clouds Mostly Cloudy 700 ft
Mostly Cloudy 25000 ft
Heat Index 76 °F
Dew Point 71 °F
Humidity 87%
Rainfall 0.00 in
Snow Depth Not available.
UV 1 out of 12
Pollen 4.60 out of 12
Air Quality Not available.
Flu Activity Not available.
METAR KRDU 041151Z 20004KT 9SM BKN007 BKN250 25/23 A3000 RMK AO2 SLP154 T02500228 10250 20228 51006 $

More Conditions Fewer Conditions

Pressure 29.99 in
Visibility 9.0 miles
Clouds Mostly Cloudy 700 ft
Mostly Cloudy 25000 ft
Heat Index 76 °F
Dew Point 71 °F
Humidity 87%
Rainfall 0.00 in
Snow Depth Not available.
UV 1 out of 12
Pollen 4.60 out of 12
Air Quality Not available.
Flu Activity Not available.
METAR KRDU 041151Z 20004KT 9SM BKN007 BKN250 25/23 A3000 RMK AO2 SLP154 T02500228 10250 20228 51006 $

More Conditions Fewer Conditions

10-Day Weather Forecast

×

Almanac

Astronomy

Aug. 04, 2015 Rise Set
Actual Time
Civil Twilight
Nautical Twilight
Astronomical Twilight
Moon
Length of Visible Light
Length of Day
Tomorrow will be .
, % of the Moon is Illuminated

Today's Extremes

State Highs State Lows

Community

WunderPhotos

Upload Photos

1,843,905 photos uploaded!

WunderBlogs® & News

Nearby

Air Quality

  Air Quality AQ Index Pollutant
Not available.

Snow Depth

Station Depth Elevation

Earthquake Activity

City Distance Mag. Time & Date
Minimum magnitude displayed is 2.5.

Coastal Water Temperatures

Place Temperature

Stations

Nearby Weather Stations

Station Location Temp. Windchill Dew Point Humidity Wind Precip. Elev Updated Type